Deqen, China
Current Conditions -  °F | °C
As of 3:00 PM on Thursday 18 Dec 2014 (Local Time) from ZPPP Reporting Station
Rain Showers Rain Showers  
Wind Chill:   Ceiling: 3000
Heat Index:   Visibility: 1.7mi
Dew Point:   Wind: 4mph
Humidity: 100%   Direction: 200°SSW
Pressure: 30.21"   Gusts: NA
Location:  28.5°N, 98.9°E
Report Text: ZPPP 180700Z 20002MPS 160V220 2800 -SHRA BR SCT010FEW016TCUSCT016 OVC030 03/03 Q1023 BECMG TL0800 3500
Loading
Personal Weather Stations






























Interactive Weather Map New forecast layout! Learn more

10-Day Weather Forecast

Advertisements
Track Severe Weather on mobile